sensor_id;sensor_type;location;lat;lon;timestamp;temperature;humidity
39493;DHT22;25176;51.060;3.720;2023-07-02T00:02:15;19.40;96.80
39493;DHT22;25176;51.060;3.720;2023-07-02T00:04:41;19.40;96.70
39493;DHT22;25176;51.060;3.720;2023-07-02T00:07:07;19.40;97.00
39493;DHT22;25176;51.060;3.720;2023-07-02T00:09:32;19.30;97.10
39493;DHT22;25176;51.060;3.720;2023-07-02T00:11:58;19.30;97.20
39493;DHT22;25176;51.060;3.720;2023-07-02T00:14:23;19.30;97.10
39493;DHT22;25176;51.060;3.720;2023-07-02T00:16:49;19.40;97.10
39493;DHT22;25176;51.060;3.720;2023-07-02T00:19:15;19.40;96.90
39493;DHT22;25176;51.060;3.720;2023-07-02T00:21:41;19.40;97.20
39493;DHT22;25176;51.060;3.720;2023-07-02T00:24:07;19.40;97.20
39493;DHT22;25176;51.060;3.720;2023-07-02T00:26:34;19.40;97.10
39493;DHT22;25176;51.060;3.720;2023-07-02T00:29:00;19.50;96.90
39493;DHT22;25176;51.060;3.720;2023-07-02T00:31:26;19.60;96.90
39493;DHT22;25176;51.060;3.720;2023-07-02T00:33:51;19.60;96.70
39493;DHT22;25176;51.060;3.720;2023-07-02T00:36:17;19.50;96.80
39493;DHT22;25176;51.060;3.720;2023-07-02T00:38:44;19.50;97.00
39493;DHT22;25176;51.060;3.720;2023-07-02T00:41:10;19.40;97.00
39493;DHT22;25176;51.060;3.720;2023-07-02T00:43:35;19.50;97.20
39493;DHT22;25176;51.060;3.720;2023-07-02T00:46:01;19.40;97.20
39493;DHT22;25176;51.060;3.720;2023-07-02T00:48:28;19.40;97.50
39493;DHT22;25176;51.060;3.720;2023-07-02T00:50:53;19.40;97.60
39493;DHT22;25176;51.060;3.720;2023-07-02T00:53:19;19.40;97.60
39493;DHT22;25176;51.060;3.720;2023-07-02T00:55:44;19.40;97.40
39493;DHT22;25176;51.060;3.720;2023-07-02T00:58:10;19.40;97.50
39493;DHT22;25176;51.060;3.720;2023-07-02T01:00:36;19.40;97.90
39493;DHT22;25176;51.060;3.720;2023-07-02T01:03:01;19.30;97.80
39493;DHT22;25176;51.060;3.720;2023-07-02T01:05:28;19.30;98.00
39493;DHT22;25176;51.060;3.720;2023-07-02T01:08:01;19.20;98.00
39493;DHT22;25176;51.060;3.720;2023-07-02T01:10:27;19.30;98.20
39493;DHT22;25176;51.060;3.720;2023-07-02T01:12:52;19.20;98.10
39493;DHT22;25176;51.060;3.720;2023-07-02T01:15:18;19.20;98.20
39493;DHT22;25176;51.060;3.720;2023-07-02T01:17:44;19.20;98.30
39493;DHT22;25176;51.060;3.720;2023-07-02T01:20:12;19.20;98.30
39493;DHT22;25176;51.060;3.720;2023-07-02T01:22:37;19.30;98.20
39493;DHT22;25176;51.060;3.720;2023-07-02T01:25:04;19.20;98.30
39493;DHT22;25176;51.060;3.720;2023-07-02T01:27:29;19.20;98.50
39493;DHT22;25176;51.060;3.720;2023-07-02T01:29:55;19.20;98.50
39493;DHT22;25176;51.060;3.720;2023-07-02T01:32:21;19.20;98.60
39493;DHT22;25176;51.060;3.720;2023-07-02T01:34:47;19.10;98.80
39493;DHT22;25176;51.060;3.720;2023-07-02T01:37:18;19.10;98.90
39493;DHT22;25176;51.060;3.720;2023-07-02T01:39:44;19.10;98.70
39493;DHT22;25176;51.060;3.720;2023-07-02T01:42:10;19.00;98.90
39493;DHT22;25176;51.060;3.720;2023-07-02T01:44:36;19.10;99.00
39493;DHT22;25176;51.060;3.720;2023-07-02T01:47:02;19.10;98.90
39493;DHT22;25176;51.060;3.720;2023-07-02T01:49:27;19.20;98.90
39493;DHT22;25176;51.060;3.720;2023-07-02T01:51:54;19.10;99.00
39493;DHT22;25176;51.060;3.720;2023-07-02T01:54:20;19.00;99.20
39493;DHT22;25176;51.060;3.720;2023-07-02T01:56:46;19.10;99.20
39493;DHT22;25176;51.060;3.720;2023-07-02T01:59:12;19.10;99.20
39493;DHT22;25176;51.060;3.720;2023-07-02T02:01:37;19.00;99.20
39493;DHT22;25176;51.060;3.720;2023-07-02T02:04:06;18.90;99.40
39493;DHT22;25176;51.060;3.720;2023-07-02T02:06:31;18.90;99.60
39493;DHT22;25176;51.060;3.720;2023-07-02T02:08:57;19.00;99.60
39493;DHT22;25176;51.060;3.720;2023-07-02T02:11:22;19.00;99.50
39493;DHT22;25176;51.060;3.720;2023-07-02T02:13:49;19.00;99.50
39493;DHT22;25176;51.060;3.720;2023-07-02T02:16:14;18.90;99.60
39493;DHT22;25176;51.060;3.720;2023-07-02T02:18:40;18.80;99.80
39493;DHT22;25176;51.060;3.720;2023-07-02T02:21:05;18.90;99.90
39493;DHT22;25176;51.060;3.720;2023-07-02T02:23:31;19.00;99.70
39493;DHT22;25176;51.060;3.720;2023-07-02T02:25:56;19.00;99.80
39493;DHT22;25176;51.060;3.720;2023-07-02T02:28:22;19.00;99.80
39493;DHT22;25176;51.060;3.720;2023-07-02T02:30:47;18.90;99.90
39493;DHT22;25176;51.060;3.720;2023-07-02T02:33:13;18.90;99.90
39493;DHT22;25176;51.060;3.720;2023-07-02T02:35:38;18.90;99.90
39493;DHT22;25176;51.060;3.720;2023-07-02T02:38:04;18.90;99.90
39493;DHT22;25176;51.060;3.720;2023-07-02T02:40:32;18.90;99.90
39493;DHT22;25176;51.060;3.720;2023-07-02T02:42:57;18.90;99.90
39493;DHT22;25176;51.060;3.720;2023-07-02T02:45:23;18.90;99.90
39493;DHT22;25176;51.060;3.720;2023-07-02T02:47:48;18.90;99.90
39493;DHT22;25176;51.060;3.720;2023-07-02T02:50:14;18.90;99.90
39493;DHT22;25176;51.060;3.720;2023-07-02T02:52:39;18.70;99.90
39493;DHT22;25176;51.060;3.720;2023-07-02T02:55:05;18.80;99.90
39493;DHT22;25176;51.060;3.720;2023-07-02T02:57:31;18.70;99.90
39493;DHT22;25176;51.060;3.720;2023-07-02T02:59:57;18.70;99.90
39493;DHT22;25176;51.060;3.720;2023-07-02T03:02:22;18.70;99.90
39493;DHT22;25176;51.060;3.720;2023-07-02T03:04:48;18.80;99.90
39493;DHT22;25176;51.060;3.720;2023-07-02T03:07:15;18.70;99.90
39493;DHT22;25176;51.060;3.720;2023-07-02T03:09:42;18.60;99.90
39493;DHT22;25176;51.060;3.720;2023-07-02T03:12:07;18.60;99.90
39493;DHT22;25176;51.060;3.720;2023-07-02T03:14:33;18.60;99.90
39493;DHT22;25176;51.060;3.720;2023-07-02T03:16:58;18.60;99.90
39493;DHT22;25176;51.060;3.720;2023-07-02T03:19:24;18.60;99.90
39493;DHT22;25176;51.060;3.720;2023-07-02T03:21:49;18.60;99.90
39493;DHT22;25176;51.060;3.720;2023-07-02T03:24:15;18.60;99.90
39493;DHT22;25176;51.060;3.720;2023-07-02T03:26:44;18.60;99.90
39493;DHT22;25176;51.060;3.720;2023-07-02T03:29:10;18.60;99.90
39493;DHT22;25176;51.060;3.720;2023-07-02T03:31:35;18.60;99.90
39493;DHT22;25176;51.060;3.720;2023-07-02T03:34:05;18.50;99.90
39493;DHT22;25176;51.060;3.720;2023-07-02T03:36:31;18.50;99.90
39493;DHT22;25176;51.060;3.720;2023-07-02T03:38:57;18.50;99.90
39493;DHT22;25176;51.060;3.720;2023-07-02T03:41:22;18.50;99.90
39493;DHT22;25176;51.060;3.720;2023-07-02T03:43:48;18.50;99.90
39493;DHT22;25176;51.060;3.720;2023-07-02T03:46:13;18.50;99.90
39493;DHT22;25176;51.060;3.720;2023-07-02T03:48:39;18.60;99.90
39493;DHT22;25176;51.060;3.720;2023-07-02T03:51:05;18.50;99.90
39493;DHT22;25176;51.060;3.720;2023-07-02T03:53:30;18.50;99.90
39493;DHT22;25176;51.060;3.720;2023-07-02T03:55:56;18.50;99.90
39493;DHT22;25176;51.060;3.720;2023-07-02T03:58:21;18.60;99.90
39493;DHT22;25176;51.060;3.720;2023-07-02T04:00:47;18.60;99.90
39493;DHT22;25176;51.060;3.720;2023-07-02T04:03:15;18.60;99.90
39493;DHT22;25176;51.060;3.720;2023-07-02T04:05:41;18.50;99.90
39493;DHT22;25176;51.060;3.720;2023-07-02T04:08:06;18.60;99.90
39493;DHT22;25176;51.060;3.720;2023-07-02T04:10:32;18.60;99.90
39493;DHT22;25176;51.060;3.720;2023-07-02T04:12:57;18.50;99.90
39493;DHT22;25176;51.060;3.720;2023-07-02T04:15:23;18.50;99.90
39493;DHT22;25176;51.060;3.720;2023-07-02T04:17:50;18.50;99.90
39493;DHT22;25176;51.060;3.720;2023-07-02T04:20:16;18.50;99.90
39493;DHT22;25176;51.060;3.720;2023-07-02T04:22:44;18.50;99.90
39493;DHT22;25176;51.060;3.720;2023-07-02T04:25:10;18.60;99.90
39493;DHT22;25176;51.060;3.720;2023-07-02T04:27:36;18.60;99.90
39493;DHT22;25176;51.060;3.720;2023-07-02T04:30:01;18.60;99.90
39493;DHT22;25176;51.060;3.720;2023-07-02T04:32:28;18.70;99.90
39493;DHT22;25176;51.060;3.720;2023-07-02T04:34:53;18.70;99.90
39493;DHT22;25176;51.060;3.720;2023-07-02T04:37:19;18.60;99.90
39493;DHT22;25176;51.060;3.720;2023-07-02T04:39:47;18.70;99.90
39493;DHT22;25176;51.060;3.720;2023-07-02T04:42:12;18.60;99.90
39493;DHT22;25176;51.060;3.720;2023-07-02T04:44:40;18.70;99.90
39493;DHT22;25176;51.060;3.720;2023-07-02T04:47:08;18.70;99.90
39493;DHT22;25176;51.060;3.720;2023-07-02T04:49:34;18.70;99.90
39493;DHT22;25176;51.060;3.720;2023-07-02T04:51:59;18.70;99.90
39493;DHT22;25176;51.060;3.720;2023-07-02T04:54:25;18.80;99.90
39493;DHT22;25176;51.060;3.720;2023-07-02T04:56:50;18.80;99.90
39493;DHT22;25176;51.060;3.720;2023-07-02T04:59:16;18.80;99.90
39493;DHT22;25176;51.060;3.720;2023-07-02T05:01:41;18.90;99.90
39493;DHT22;25176;51.060;3.720;2023-07-02T05:04:08;19.00;99.90
39493;DHT22;25176;51.060;3.720;2023-07-02T05:06:34;19.00;99.90
39493;DHT22;25176;51.060;3.720;2023-07-02T05:08:59;19.10;99.90
39493;DHT22;25176;51.060;3.720;2023-07-02T05:11:25;19.10;99.90
39493;DHT22;25176;51.060;3.720;2023-07-02T05:13:51;19.20;99.90
39493;DHT22;25176;51.060;3.720;2023-07-02T05:16:16;19.20;99.50
39493;DHT22;25176;51.060;3.720;2023-07-02T05:18:42;19.10;99.40
39493;DHT22;25176;51.060;3.720;2023-07-02T05:21:07;19.20;99.10
39493;DHT22;25176;51.060;3.720;2023-07-02T05:23:33;19.20;98.90
39493;DHT22;25176;51.060;3.720;2023-07-02T05:25:58;19.30;98.70
39493;DHT22;25176;51.060;3.720;2023-07-02T05:28:24;19.40;98.20
39493;DHT22;25176;51.060;3.720;2023-07-02T05:30:49;19.50;97.90
39493;DHT22;25176;51.060;3.720;2023-07-02T05:33:15;19.50;97.90
39493;DHT22;25176;51.060;3.720;2023-07-02T05:35:40;19.60;97.80
39493;DHT22;25176;51.060;3.720;2023-07-02T05:38:06;19.80;97.40
39493;DHT22;25176;51.060;3.720;2023-07-02T05:40:32;19.90;97.00
39493;DHT22;25176;51.060;3.720;2023-07-02T05:42:57;20.00;96.70
39493;DHT22;25176;51.060;3.720;2023-07-02T05:45:22;19.90;96.60
39493;DHT22;25176;51.060;3.720;2023-07-02T05:47:49;20.00;96.50
39493;DHT22;25176;51.060;3.720;2023-07-02T05:50:14;20.00;96.40
39493;DHT22;25176;51.060;3.720;2023-07-02T05:52:40;20.20;96.30
39493;DHT22;25176;51.060;3.720;2023-07-02T05:55:07;20.30;95.60
39493;DHT22;25176;51.060;3.720;2023-07-02T05:57:33;20.30;94.90
39493;DHT22;25176;51.060;3.720;2023-07-02T05:59:58;20.40;94.70
39493;DHT22;25176;51.060;3.720;2023-07-02T06:02:24;20.40;94.60
39493;DHT22;25176;51.060;3.720;2023-07-02T06:04:49;20.40;94.30
39493;DHT22;25176;51.060;3.720;2023-07-02T06:07:15;20.40;94.00
39493;DHT22;25176;51.060;3.720;2023-07-02T06:09:40;20.50;93.90
39493;DHT22;25176;51.060;3.720;2023-07-02T06:12:06;20.70;93.90
39493;DHT22;25176;51.060;3.720;2023-07-02T06:14:31;21.00;93.70
39493;DHT22;25176;51.060;3.720;2023-07-02T06:16:57;21.20;93.10
39493;DHT22;25176;51.060;3.720;2023-07-02T06:19:22;21.40;91.90
39493;DHT22;25176;51.060;3.720;2023-07-02T06:21:48;21.40;91.90
39493;DHT22;25176;51.060;3.720;2023-07-02T06:24:13;21.40;90.90
39493;DHT22;25176;51.060;3.720;2023-07-02T06:26:39;21.40;90.70
39493;DHT22;25176;51.060;3.720;2023-07-02T06:29:04;21.20;90.50
39493;DHT22;25176;51.060;3.720;2023-07-02T06:31:30;21.30;90.20
39493;DHT22;25176;51.060;3.720;2023-07-02T06:33:55;21.20;90.00
39493;DHT22;25176;51.060;3.720;2023-07-02T06:36:21;21.40;89.80
39493;DHT22;25176;51.060;3.720;2023-07-02T06:38:46;21.60;89.70
39493;DHT22;25176;51.060;3.720;2023-07-02T06:41:12;21.60;88.00
39493;DHT22;25176;51.060;3.720;2023-07-02T06:43:37;21.90;87.20
39493;DHT22;25176;51.060;3.720;2023-07-02T06:46:03;22.10;85.80
39493;DHT22;25176;51.060;3.720;2023-07-02T06:48:29;22.40;83.80
39493;DHT22;25176;51.060;3.720;2023-07-02T06:50:55;22.60;81.70
39493;DHT22;25176;51.060;3.720;2023-07-02T06:53:21;22.70;81.30
39493;DHT22;25176;51.060;3.720;2023-07-02T06:55:46;23.00;79.60
39493;DHT22;25176;51.060;3.720;2023-07-02T06:58:12;23.00;78.80
39493;DHT22;25176;51.060;3.720;2023-07-02T07:00:37;23.20;78.90
39493;DHT22;25176;51.060;3.720;2023-07-02T07:03:03;23.10;77.50
39493;DHT22;25176;51.060;3.720;2023-07-02T07:05:29;23.10;77.80
39493;DHT22;25176;51.060;3.720;2023-07-02T07:07:55;23.00;76.40
39493;DHT22;25176;51.060;3.720;2023-07-02T07:10:20;23.20;75.30
39493;DHT22;25176;51.060;3.720;2023-07-02T07:12:46;23.10;75.10
39493;DHT22;25176;51.060;3.720;2023-07-02T07:15:11;23.20;74.10
39493;DHT22;25176;51.060;3.720;2023-07-02T07:17:37;23.30;74.60
39493;DHT22;25176;51.060;3.720;2023-07-02T07:20:03;23.50;74.80
39493;DHT22;25176;51.060;3.720;2023-07-02T07:22:30;23.60;73.90
39493;DHT22;25176;51.060;3.720;2023-07-02T07:24:55;23.40;73.10
39493;DHT22;25176;51.060;3.720;2023-07-02T07:27:21;23.60;73.40
39493;DHT22;25176;51.060;3.720;2023-07-02T07:29:48;24.00;73.30
39493;DHT22;25176;51.060;3.720;2023-07-02T07:32:13;24.30;71.90
39493;DHT22;25176;51.060;3.720;2023-07-02T07:34:39;24.70;71.20
39493;DHT22;25176;51.060;3.720;2023-07-02T07:37:05;24.70;70.60
39493;DHT22;25176;51.060;3.720;2023-07-02T07:39:30;24.90;69.60
39493;DHT22;25176;51.060;3.720;2023-07-02T07:41:57;25.20;69.20
39493;DHT22;25176;51.060;3.720;2023-07-02T07:44:23;25.10;68.20
39493;DHT22;25176;51.060;3.720;2023-07-02T07:46:48;25.40;66.50
39493;DHT22;25176;51.060;3.720;2023-07-02T07:49:14;25.60;66.20
39493;DHT22;25176;51.060;3.720;2023-07-02T07:51:39;25.60;66.90
39493;DHT22;25176;51.060;3.720;2023-07-02T07:54:05;26.10;66.10
39493;DHT22;25176;51.060;3.720;2023-07-02T07:56:30;26.80;65.90
39493;DHT22;25176;51.060;3.720;2023-07-02T07:58:56;27.40;64.80
39493;DHT22;25176;51.060;3.720;2023-07-02T08:01:21;27.50;63.30
39493;DHT22;25176;51.060;3.720;2023-07-02T08:03:47;27.30;63.00
39493;DHT22;25176;51.060;3.720;2023-07-02T08:06:12;26.60;64.30
39493;DHT22;25176;51.060;3.720;2023-07-02T08:08:38;26.30;65.20
39493;DHT22;25176;51.060;3.720;2023-07-02T08:11:03;25.30;67.20
39493;DHT22;25176;51.060;3.720;2023-07-02T08:13:29;25.90;66.50
39493;DHT22;25176;51.060;3.720;2023-07-02T08:15:54;26.20;66.50
39493;DHT22;25176;51.060;3.720;2023-07-02T08:18:20;26.30;66.40
39493;DHT22;25176;51.060;3.720;2023-07-02T08:20:45;25.70;66.70
39493;DHT22;25176;51.060;3.720;2023-07-02T08:23:11;25.40;68.00
39493;DHT22;25176;51.060;3.720;2023-07-02T08:25:37;24.90;68.30
39493;DHT22;25176;51.060;3.720;2023-07-02T08:28:02;24.50;69.30
39493;DHT22;25176;51.060;3.720;2023-07-02T08:30:28;24.60;70.30
39493;DHT22;25176;51.060;3.720;2023-07-02T08:32:53;25.10;69.70
39493;DHT22;25176;51.060;3.720;2023-07-02T08:35:20;25.00;69.50
39493;DHT22;25176;51.060;3.720;2023-07-02T08:37:46;24.40;70.70
39493;DHT22;25176;51.060;3.720;2023-07-02T08:40:18;24.00;70.60
39493;DHT22;25176;51.060;3.720;2023-07-02T08:42:44;24.00;69.70
39493;DHT22;25176;51.060;3.720;2023-07-02T08:45:10;24.10;69.70
39493;DHT22;25176;51.060;3.720;2023-07-02T08:47:36;24.00;70.70
39493;DHT22;25176;51.060;3.720;2023-07-02T08:50:02;24.00;70.00
39493;DHT22;25176;51.060;3.720;2023-07-02T08:52:28;23.90;70.80
39493;DHT22;25176;51.060;3.720;2023-07-02T08:54:54;23.60;70.20
39493;DHT22;25176;51.060;3.720;2023-07-02T08:57:19;23.30;69.90
39493;DHT22;25176;51.060;3.720;2023-07-02T08:59:46;22.90;70.90
39493;DHT22;25176;51.060;3.720;2023-07-02T09:02:13;22.70;72.10
39493;DHT22;25176;51.060;3.720;2023-07-02T09:04:38;22.60;72.50
39493;DHT22;25176;51.060;3.720;2023-07-02T09:09:29;23.80;71.90
39493;DHT22;25176;51.060;3.720;2023-07-02T09:11:55;25.60;66.90
39493;DHT22;25176;51.060;3.720;2023-07-02T09:14:24;26.60;65.20
39493;DHT22;25176;51.060;3.720;2023-07-02T09:17:00;27.00;63.60
39493;DHT22;25176;51.060;3.720;2023-07-02T09:19:25;26.70;63.80
39493;DHT22;25176;51.060;3.720;2023-07-02T09:21:51;26.60;63.70
39493;DHT22;25176;51.060;3.720;2023-07-02T09:24:18;25.80;64.20
39493;DHT22;25176;51.060;3.720;2023-07-02T09:26:44;25.70;65.00
39493;DHT22;25176;51.060;3.720;2023-07-02T09:29:11;26.60;63.80
39493;DHT22;25176;51.060;3.720;2023-07-02T09:31:43;27.80;62.60
39493;DHT22;25176;51.060;3.720;2023-07-02T09:34:09;29.60;59.20
39493;DHT22;25176;51.060;3.720;2023-07-02T09:36:35;30.50;55.00
39493;DHT22;25176;51.060;3.720;2023-07-02T09:39:06;30.50;55.40
39493;DHT22;25176;51.060;3.720;2023-07-02T09:41:31;31.30;55.10
39493;DHT22;25176;51.060;3.720;2023-07-02T09:43:57;32.10;53.00
39493;DHT22;25176;51.060;3.720;2023-07-02T09:46:23;33.30;52.10
39493;DHT22;25176;51.060;3.720;2023-07-02T09:48:48;34.10;49.30
39493;DHT22;25176;51.060;3.720;2023-07-02T09:51:14;33.50;47.10
39493;DHT22;25176;51.060;3.720;2023-07-02T09:53:39;32.90;47.70
39493;DHT22;25176;51.060;3.720;2023-07-02T09:56:05;33.30;46.00
39493;DHT22;25176;51.060;3.720;2023-07-02T09:58:32;33.30;47.20
39493;DHT22;25176;51.060;3.720;2023-07-02T10:00:58;32.80;46.50
39493;DHT22;25176;51.060;3.720;2023-07-02T10:03:30;32.10;46.10
39493;DHT22;25176;51.060;3.720;2023-07-02T10:06:05;32.50;45.10
39493;DHT22;25176;51.060;3.720;2023-07-02T10:08:31;33.00;44.60
39493;DHT22;25176;51.060;3.720;2023-07-02T10:11:06;32.40;44.60
39493;DHT22;25176;51.060;3.720;2023-07-02T10:13:31;32.00;45.60
39493;DHT22;25176;51.060;3.720;2023-07-02T10:16:00;34.90;44.00
39493;DHT22;25176;51.060;3.720;2023-07-02T10:18:26;36.90;42.20
39493;DHT22;25176;51.060;3.720;2023-07-02T10:20:51;36.30;41.80
39493;DHT22;25176;51.060;3.720;2023-07-02T10:23:17;36.80;41.60
39493;DHT22;25176;51.060;3.720;2023-07-02T10:25:42;34.20;41.90
39493;DHT22;25176;51.060;3.720;2023-07-02T10:30:39;31.00;44.50
39493;DHT22;25176;51.060;3.720;2023-07-02T10:33:08;30.10;45.60
39493;DHT22;25176;51.060;3.720;2023-07-02T10:35:34;29.40;46.80
39493;DHT22;25176;51.060;3.720;2023-07-02T10:38:00;31.10;46.00
39493;DHT22;25176;51.060;3.720;2023-07-02T10:40:25;32.40;44.40
39493;DHT22;25176;51.060;3.720;2023-07-02T10:42:52;31.60;44.10
39493;DHT22;25176;51.060;3.720;2023-07-02T10:45:18;31.10;45.00
39493;DHT22;25176;51.060;3.720;2023-07-02T10:47:44;30.50;46.20
39493;DHT22;25176;51.060;3.720;2023-07-02T10:50:16;30.20;46.30
39493;DHT22;25176;51.060;3.720;2023-07-02T10:52:42;30.10;46.80
39493;DHT22;25176;51.060;3.720;2023-07-02T10:55:07;31.00;46.00
39493;DHT22;25176;51.060;3.720;2023-07-02T10:57:33;31.80;45.20
39493;DHT22;25176;51.060;3.720;2023-07-02T11:00:05;31.60;44.60
39493;DHT22;25176;51.060;3.720;2023-07-02T11:02:36;31.60;45.00
39493;DHT22;25176;51.060;3.720;2023-07-02T11:05:02;31.40;44.90
39493;DHT22;25176;51.060;3.720;2023-07-02T11:07:28;30.50;46.60
39493;DHT22;25176;51.060;3.720;2023-07-02T11:09:54;30.30;45.40
39493;DHT22;25176;51.060;3.720;2023-07-02T11:12:26;29.60;45.70
39493;DHT22;25176;51.060;3.720;2023-07-02T11:14:52;30.10;46.40
39493;DHT22;25176;51.060;3.720;2023-07-02T11:17:24;29.50;46.50
39493;DHT22;25176;51.060;3.720;2023-07-02T11:19:50;28.70;48.00
39493;DHT22;25176;51.060;3.720;2023-07-02T11:22:16;28.00;48.20
39493;DHT22;25176;51.060;3.720;2023-07-02T11:24:41;27.30;48.80
39493;DHT22;25176;51.060;3.720;2023-07-02T11:27:07;27.20;49.40
39493;DHT22;25176;51.060;3.720;2023-07-02T11:29:33;27.10;50.00
39493;DHT22;25176;51.060;3.720;2023-07-02T11:32:08;27.20;50.00
39493;DHT22;25176;51.060;3.720;2023-07-02T11:34:37;26.70;50.30
39493;DHT22;25176;51.060;3.720;2023-07-02T11:37:03;26.20;51.30
39493;DHT22;25176;51.060;3.720;2023-07-02T11:39:29;26.10;51.00
39493;DHT22;25176;51.060;3.720;2023-07-02T11:41:55;26.10;51.60
39493;DHT22;25176;51.060;3.720;2023-07-02T11:44:20;26.10;52.00
39493;DHT22;25176;51.060;3.720;2023-07-02T11:46:46;26.20;52.10
39493;DHT22;25176;51.060;3.720;2023-07-02T11:49:12;26.20;51.60
39493;DHT22;25176;51.060;3.720;2023-07-02T11:51:41;26.20;51.80
39493;DHT22;25176;51.060;3.720;2023-07-02T11:54:11;26.40;51.10
39493;DHT22;25176;51.060;3.720;2023-07-02T11:56:37;26.30;51.00
39493;DHT22;25176;51.060;3.720;2023-07-02T11:59:03;26.20;51.40
39493;DHT22;25176;51.060;3.720;2023-07-02T12:01:29;25.80;52.60
39493;DHT22;25176;51.060;3.720;2023-07-02T12:03:54;25.80;52.60
39493;DHT22;25176;51.060;3.720;2023-07-02T12:06:20;25.80;53.70
39493;DHT22;25176;51.060;3.720;2023-07-02T12:08:45;26.00;52.70
39493;DHT22;25176;51.060;3.720;2023-07-02T12:11:11;26.10;52.40
39493;DHT22;25176;51.060;3.720;2023-07-02T12:13:36;26.00;53.10
39493;DHT22;25176;51.060;3.720;2023-07-02T12:16:02;26.20;53.10
39493;DHT22;25176;51.060;3.720;2023-07-02T12:18:27;26.30;51.60
39493;DHT22;25176;51.060;3.720;2023-07-02T12:20:53;26.20;52.00
39493;DHT22;25176;51.060;3.720;2023-07-02T12:23:18;26.00;52.10
39493;DHT22;25176;51.060;3.720;2023-07-02T12:25:44;25.90;52.50
39493;DHT22;25176;51.060;3.720;2023-07-02T12:28:09;26.00;52.50
39493;DHT22;25176;51.060;3.720;2023-07-02T12:30:35;26.00;52.50
39493;DHT22;25176;51.060;3.720;2023-07-02T12:33:00;26.00;53.10
39493;DHT22;25176;51.060;3.720;2023-07-02T12:35:26;25.80;52.90
39493;DHT22;25176;51.060;3.720;2023-07-02T12:37:52;25.80;53.40
39493;DHT22;25176;51.060;3.720;2023-07-02T12:40:18;25.60;53.40
39493;DHT22;25176;51.060;3.720;2023-07-02T12:42:44;25.70;52.80
39493;DHT22;25176;51.060;3.720;2023-07-02T12:45:09;25.60;52.30
39493;DHT22;25176;51.060;3.720;2023-07-02T12:47:37;25.50;52.20
39493;DHT22;25176;51.060;3.720;2023-07-02T12:50:02;25.50;52.30
39493;DHT22;25176;51.060;3.720;2023-07-02T12:52:28;25.70;52.60
39493;DHT22;25176;51.060;3.720;2023-07-02T12:54:54;25.70;53.10
39493;DHT22;25176;51.060;3.720;2023-07-02T12:57:19;25.70;53.50
39493;DHT22;25176;51.060;3.720;2023-07-02T12:59:44;25.90;53.10
39493;DHT22;25176;51.060;3.720;2023-07-02T13:02:10;25.90;52.00
39493;DHT22;25176;51.060;3.720;2023-07-02T13:04:36;25.90;52.10
39493;DHT22;25176;51.060;3.720;2023-07-02T13:07:01;25.70;52.10
39493;DHT22;25176;51.060;3.720;2023-07-02T13:09:27;25.80;52.30
39493;DHT22;25176;51.060;3.720;2023-07-02T13:11:53;25.60;52.20
39493;DHT22;25176;51.060;3.720;2023-07-02T13:14:18;25.70;52.40
39493;DHT22;25176;51.060;3.720;2023-07-02T13:16:44;25.70;52.70
39493;DHT22;25176;51.060;3.720;2023-07-02T13:19:09;25.70;51.60
39493;DHT22;25176;51.060;3.720;2023-07-02T13:21:35;25.70;51.60
39493;DHT22;25176;51.060;3.720;2023-07-02T13:24:00;25.50;51.90
39493;DHT22;25176;51.060;3.720;2023-07-02T13:26:26;25.60;52.00
39493;DHT22;25176;51.060;3.720;2023-07-02T13:28:51;25.80;52.30
39493;DHT22;25176;51.060;3.720;2023-07-02T13:31:17;25.80;53.10
39493;DHT22;25176;51.060;3.720;2023-07-02T13:33:42;25.60;52.30
39493;DHT22;25176;51.060;3.720;2023-07-02T13:36:08;25.60;52.00
39493;DHT22;25176;51.060;3.720;2023-07-02T13:38:33;25.60;52.00
39493;DHT22;25176;51.060;3.720;2023-07-02T13:40:59;25.50;51.80
39493;DHT22;25176;51.060;3.720;2023-07-02T13:43:25;25.60;51.70
39493;DHT22;25176;51.060;3.720;2023-07-02T13:45:50;25.60;51.30
39493;DHT22;25176;51.060;3.720;2023-07-02T13:48:16;25.40;52.20
39493;DHT22;25176;51.060;3.720;2023-07-02T13:50:41;25.40;52.10
39493;DHT22;25176;51.060;3.720;2023-07-02T13:53:07;25.40;52.00
39493;DHT22;25176;51.060;3.720;2023-07-02T13:55:33;25.40;51.50
39493;DHT22;25176;51.060;3.720;2023-07-02T13:57:58;25.50;51.50
39493;DHT22;25176;51.060;3.720;2023-07-02T14:00:25;25.80;52.80
39493;DHT22;25176;51.060;3.720;2023-07-02T14:02:51;25.80;50.70
39493;DHT22;25176;51.060;3.720;2023-07-02T14:05:17;26.00;51.70
39493;DHT22;25176;51.060;3.720;2023-07-02T14:07:42;25.70;52.90
39493;DHT22;25176;51.060;3.720;2023-07-02T14:10:08;25.80;52.00
39493;DHT22;25176;51.060;3.720;2023-07-02T14:12:33;25.70;50.80
39493;DHT22;25176;51.060;3.720;2023-07-02T14:14:59;25.60;52.30
39493;DHT22;25176;51.060;3.720;2023-07-02T14:17:24;25.60;51.90
39493;DHT22;25176;51.060;3.720;2023-07-02T14:19:50;25.50;52.50
39493;DHT22;25176;51.060;3.720;2023-07-02T14:22:18;25.60;52.50
39493;DHT22;25176;51.060;3.720;2023-07-02T14:24:45;25.60;52.70
39493;DHT22;25176;51.060;3.720;2023-07-02T14:27:11;25.60;52.60
39493;DHT22;25176;51.060;3.720;2023-07-02T14:29:37;25.50;52.80
39493;DHT22;25176;51.060;3.720;2023-07-02T14:32:02;25.50;52.30
39493;DHT22;25176;51.060;3.720;2023-07-02T14:34:28;25.60;52.70
39493;DHT22;25176;51.060;3.720;2023-07-02T14:36:53;25.40;53.60
39493;DHT22;25176;51.060;3.720;2023-07-02T14:39:19;25.60;53.10
39493;DHT22;25176;51.060;3.720;2023-07-02T14:41:44;25.90;52.70
39493;DHT22;25176;51.060;3.720;2023-07-02T14:44:10;26.00;52.60
39493;DHT22;25176;51.060;3.720;2023-07-02T14:46:35;25.90;53.00
39493;DHT22;25176;51.060;3.720;2023-07-02T14:49:01;25.90;53.50
39493;DHT22;25176;51.060;3.720;2023-07-02T14:51:26;25.60;52.80
39493;DHT22;25176;51.060;3.720;2023-07-02T14:53:52;25.40;52.70
39493;DHT22;25176;51.060;3.720;2023-07-02T14:56:17;25.50;53.10
39493;DHT22;25176;51.060;3.720;2023-07-02T14:58:43;25.40;53.50
39493;DHT22;25176;51.060;3.720;2023-07-02T15:01:09;25.40;53.80
39493;DHT22;25176;51.060;3.720;2023-07-02T15:03:34;25.40;52.90
39493;DHT22;25176;51.060;3.720;2023-07-02T15:06:10;25.40;52.60
39493;DHT22;25176;51.060;3.720;2023-07-02T15:08:36;25.30;53.40
39493;DHT22;25176;51.060;3.720;2023-07-02T15:11:01;25.30;53.40
39493;DHT22;25176;51.060;3.720;2023-07-02T15:13:27;25.40;53.00
39493;DHT22;25176;51.060;3.720;2023-07-02T15:15:53;25.40;53.40
39493;DHT22;25176;51.060;3.720;2023-07-02T15:18:18;25.50;53.50
39493;DHT22;25176;51.060;3.720;2023-07-02T15:20:45;25.40;52.70
39493;DHT22;25176;51.060;3.720;2023-07-02T15:23:11;25.30;52.80
39493;DHT22;25176;51.060;3.720;2023-07-02T15:25:37;25.20;54.30
39493;DHT22;25176;51.060;3.720;2023-07-02T15:28:02;25.00;54.00